Time;durP1;ratioP1;P1;durP2;ratioP2;P2;SDS_P1;SDS_P2;PMS_P1;PMS_P2;Temp;Humidity;BMP_temperature;BMP_pressure;BME280_temperature;BME280_humidity;BME280_pressure;Samples;Min_cycle;Max_cycle;Signal;HPM_P1;HPM_P2
2024/01/27 00:00:15;;;;;;;4.57;3.20;;;22.90;68.40;;;;;;6168313;28;89323;-64
2024/01/27 00:03:17;;;;;;;4.82;3.35;;;22.80;67.70;;;;;;6170134;28;88909;-65
2024/01/27 00:06:18;;;;;;;4.90;3.47;;;22.80;67.70;;;;;;6177248;28;89047;-65
2024/01/27 00:09:20;;;;;;;5.07;3.70;;;22.80;67.70;;;;;;6164285;28;88564;-65
2024/01/27 00:12:22;;;;;;;5.45;3.90;;;22.80;67.70;;;;;;6173346;28;89365;-65
2024/01/27 00:15:26;;;;;;;5.15;3.67;;;22.80;67.70;;;;;;6167782;28;89223;-64
2024/01/27 00:18:28;;;;;;;6.00;3.85;;;22.80;67.70;;;;;;6169546;28;90140;-64
2024/01/27 00:21:30;;;;;;;5.15;3.75;;;22.80;67.70;;;;;;6158446;28;89498;-65
2024/01/27 00:24:32;;;;;;;5.35;3.67;;;22.80;67.60;;;;;;6172519;28;89367;-64
2024/01/27 00:27:34;;;;;;;4.88;3.70;;;22.80;67.60;;;;;;6175232;28;89063;-64
2024/01/27 00:30:38;;;;;;;4.78;3.70;;;22.90;67.60;;;;;;6166689;28;89094;-64
2024/01/27 00:33:40;;;;;;;5.35;3.90;;;22.80;67.60;;;;;;6161752;28;88817;-64
2024/01/27 00:36:48;;;;;;;5.30;3.85;;;22.80;67.60;;;;;;6174779;28;89179;-64
2024/01/27 00:39:50;;;;;;;5.60;4.13;;;22.80;67.60;;;;;;6176374;28;88397;-63
2024/01/27 00:42:52;;;;;;;6.07;4.00;;;22.80;67.70;;;;;;6168503;28;89129;-65
2024/01/27 00:45:56;;;;;;;5.88;3.70;;;22.80;67.80;;;;;;6180240;28;89017;-65
2024/01/27 00:48:58;;;;;;;5.88;4.10;;;22.80;67.80;;;;;;6167691;28;89673;-65
2024/01/27 00:52:00;;;;;;;6.80;4.35;;;22.80;67.80;;;;;;6174423;28;88965;-65
2024/01/27 00:55:02;;;;;;;6.53;4.35;;;22.70;67.80;;;;;;6178975;28;89083;-65
2024/01/27 00:58:04;;;;;;;5.07;3.95;;;22.70;67.80;;;;;;6181950;28;89183;-65
2024/01/27 01:01:07;;;;;;;5.53;3.95;;;22.70;67.80;;;;;;6176586;28;89026;-65
2024/01/27 01:04:09;;;;;;;6.57;4.10;;;22.70;67.90;;;;;;6172384;28;88382;-65
2024/01/27 01:07:11;;;;;;;5.57;4.07;;;22.70;67.80;;;;;;6172790;28;89690;-65
2024/01/27 01:10:13;;;;;;;6.53;4.30;;;22.70;67.70;;;;;;6172184;28;88743;-65
2024/01/27 01:13:16;;;;;;;5.60;4.13;;;22.70;67.70;;;;;;6181957;28;89112;-65
2024/01/27 01:16:19;;;;;;;5.78;4.30;;;22.70;67.70;;;;;;6178550;28;88877;-65
2024/01/27 01:19:21;;;;;;;5.63;3.97;;;22.70;67.70;;;;;;6165115;28;89930;-65
2024/01/27 01:22:23;;;;;;;7.40;4.18;;;22.70;67.60;;;;;;6178335;28;89127;-66
2024/01/27 01:25:25;;;;;;;6.93;4.18;;;22.70;67.60;;;;;;6180089;28;89461;-65
2024/01/27 01:28:28;;;;;;;6.38;4.20;;;22.70;67.70;;;;;;6176271;28;89415;-65
2024/01/27 01:31:31;;;;;;;6.50;4.10;;;22.70;67.70;;;;;;6179794;28;88997;-65
2024/01/27 01:34:34;;;;;;;5.65;3.85;;;22.70;67.70;;;;;;6173642;28;88980;-66
2024/01/27 01:37:36;;;;;;;5.75;4.35;;;22.70;67.70;;;;;;6177763;28;89140;-65
2024/01/27 01:40:38;;;;;;;5.82;4.00;;;22.70;67.70;;;;;;6179372;28;88429;-66
2024/01/27 01:43:40;;;;;;;5.63;4.13;;;22.70;67.70;;;;;;6177695;28;89343;-65
2024/01/27 01:46:43;;;;;;;5.38;3.78;;;22.70;67.70;;;;;;6172303;28;89306;-65
2024/01/27 01:49:45;;;;;;;5.40;4.07;;;22.60;67.70;;;;;;6181648;28;90687;-65
2024/01/27 01:52:49;;;;;;;4.55;3.53;;;22.60;67.70;;;;;;6174951;28;89234;-65
2024/01/27 01:55:52;;;;;;;5.13;3.88;;;22.70;67.70;;;;;;6180844;28;89102;-65
2024/01/27 01:58:55;;;;;;;5.85;4.00;;;22.60;67.70;;;;;;6176127;28;89014;-65
2024/01/27 02:01:58;;;;;;;6.43;3.85;;;22.60;67.60;;;;;;6181371;28;87980;-65
2024/01/27 02:05:01;;;;;;;7.18;4.40;;;22.60;67.70;;;;;;6174579;28;89110;-65
2024/01/27 02:08:04;;;;;;;5.18;3.72;;;22.60;67.60;;;;;;6176000;28;88072;-65
2024/01/27 02:11:06;;;;;;;5.40;3.92;;;22.60;67.60;;;;;;6166697;28;88200;-66
2024/01/27 02:14:08;;;;;;;7.03;4.30;;;22.70;67.70;;;;;;6166383;28;89114;-66
2024/01/27 02:17:11;;;;;;;5.65;4.25;;;22.60;67.60;;;;;;6182444;28;89017;-66
2024/01/27 02:20:13;;;;;;;6.57;4.03;;;22.60;67.60;;;;;;6163977;28;90489;-65
2024/01/27 02:23:15;;;;;;;5.35;3.88;;;22.60;67.60;;;;;;6186059;28;89008;-66
2024/01/27 02:26:19;;;;;;;6.05;4.10;;;22.60;67.60;;;;;;6180508;28;87976;-66
2024/01/27 02:29:21;;;;;;;5.20;3.83;;;22.60;67.60;;;;;;6179223;28;89562;-65
2024/01/27 02:32:23;;;;;;;5.82;3.97;;;22.60;67.60;;;;;;6171749;28;89090;-66
2024/01/27 02:35:25;;;;;;;4.90;3.85;;;22.60;67.60;;;;;;6182732;28;89315;-66
2024/01/27 02:38:26;;;;;;;7.65;4.45;;;22.60;67.60;;;;;;6178152;28;89348;-66
2024/01/27 02:41:30;;;;;;;6.40;4.13;;;22.60;67.60;;;;;;6179637;28;88503;-66
2024/01/27 02:44:32;;;;;;;5.55;3.95;;;22.60;67.60;;;;;;6172971;28;89079;-66
2024/01/27 02:47:34;;;;;;;4.72;3.70;;;22.60;67.60;;;;;;6178449;28;89181;-66
2024/01/27 02:50:36;;;;;;;5.68;3.80;;;22.60;67.70;;;;;;6179674;28;90041;-66
2024/01/27 02:53:37;;;;;;;5.95;4.28;;;22.60;67.60;;;;;;6169410;28;89579;-65
2024/01/27 02:56:41;;;;;;;5.25;3.90;;;22.60;67.60;;;;;;6170622;28;89227;-66
2024/01/27 02:59:46;;;;;;;5.88;4.22;;;22.60;67.50;;;;;;6182627;28;88235;-66
2024/01/27 03:02:48;;;;;;;4.80;3.85;;;22.60;67.60;;;;;;6177770;28;90202;-66
2024/01/27 03:05:50;;;;;;;5.28;4.00;;;22.60;67.50;;;;;;6125735;28;1215605;-66
2024/01/27 03:08:52;;;;;;;5.18;4.25;;;22.60;67.40;;;;;;6178690;28;89111;-66
2024/01/27 03:11:55;;;;;;;5.07;4.03;;;22.60;67.50;;;;;;6175046;28;88360;-66
2024/01/27 03:14:57;;;;;;;5.38;4.32;;;22.60;67.50;;;;;;6169455;28;89088;-66
2024/01/27 03:18:00;;;;;;;6.57;4.57;;;22.60;67.60;;;;;;6174680;28;89396;-67
2024/01/27 03:21:02;;;;;;;6.85;4.43;;;22.50;67.40;;;;;;6167860;28;89980;-66
2024/01/27 03:24:04;;;;;;;6.13;4.47;;;22.50;67.50;;;;;;6182631;28;89365;-66
2024/01/27 03:27:08;;;;;;;6.45;4.63;;;22.50;67.60;;;;;;6170363;28;89131;-66
2024/01/27 03:30:10;;;;;;;6.10;4.40;;;22.60;67.70;;;;;;6172938;28;89049;-66
2024/01/27 03:33:12;;;;;;;10.13;5.78;;;22.50;67.60;;;;;;6164907;28;89195;-66
2024/01/27 03:36:14;;;;;;;6.53;4.88;;;22.50;67.60;;;;;;6171919;28;89261;-65
2024/01/27 03:39:16;;;;;;;8.50;5.45;;;22.50;67.60;;;;;;6180748;28;89235;-65
2024/01/27 03:42:20;;;;;;;6.43;5.05;;;22.50;67.50;;;;;;6175907;28;88844;-66
2024/01/27 03:45:22;;;;;;;6.68;5.40;;;22.50;67.40;;;;;;6168807;28;87973;-66
2024/01/27 03:48:24;;;;;;;7.60;4.95;;;22.50;67.40;;;;;;6171627;28;89370;-66
2024/01/27 03:51:26;;;;;;;6.28;4.90;;;22.50;67.40;;;;;;6177577;28;88879;-66
2024/01/27 03:54:28;;;;;;;7.05;5.43;;;22.50;67.40;;;;;;6176781;28;88963;-66
2024/01/27 03:57:31;;;;;;;7.28;5.18;;;22.50;67.40;;;;;;6177730;28;89121;-66
2024/01/27 04:00:33;;;;;;;6.47;5.15;;;22.50;67.40;;;;;;6176492;28;89109;-66
2024/01/27 04:03:35;;;;;;;6.82;5.10;;;22.50;67.40;;;;;;6177887;28;89129;-66
2024/01/27 04:06:38;;;;;;;7.43;5.25;;;22.50;67.40;;;;;;6176400;28;87895;-66
2024/01/27 04:09:40;;;;;;;7.43;5.43;;;22.50;67.40;;;;;;6178257;28;89123;-66
2024/01/27 04:12:44;;;;;;;6.47;5.68;;;22.50;67.40;;;;;;6180764;28;88678;-67
2024/01/27 04:15:47;;;;;;;5.97;5.32;;;22.50;67.60;;;;;;6184087;28;88590;-66
2024/01/27 04:18:49;;;;;;;7.32;5.55;;;22.40;67.50;;;;;;6178230;28;89016;-66
2024/01/27 04:21:51;;;;;;;6.45;5.18;;;22.40;67.60;;;;;;6170729;28;90157;-67
2024/01/27 04:24:53;;;;;;;5.93;5.25;;;22.50;67.60;;;;;;6179896;28;89444;-66
2024/01/27 04:27:57;;;;;;;6.10;5.32;;;22.40;67.50;;;;;;6183871;28;89290;-66
2024/01/27 04:30:59;;;;;;;6.82;5.22;;;22.40;67.50;;;;;;6182155;28;89253;-66
2024/01/27 04:34:01;;;;;;;7.95;5.38;;;22.40;67.50;;;;;;6180842;28;89189;-66
2024/01/27 04:37:03;;;;;;;8.75;5.72;;;22.40;67.50;;;;;;6179503;28;89209;-66
2024/01/27 04:40:06;;;;;;;8.05;5.75;;;22.40;67.50;;;;;;6181848;28;87954;-66
2024/01/27 04:43:09;;;;;;;6.85;5.60;;;22.40;67.40;;;;;;6180783;28;88378;-66
2024/01/27 04:46:11;;;;;;;7.68;5.10;;;22.40;67.40;;;;;;6193528;28;89542;-66
2024/01/27 04:49:14;;;;;;;7.82;5.85;;;22.30;67.40;;;;;;6187133;28;89100;-66
2024/01/27 04:52:16;;;;;;;6.95;5.55;;;22.40;67.40;;;;;;6180589;28;90147;-66
2024/01/27 04:55:19;;;;;;;7.03;5.45;;;22.40;67.40;;;;;;6178109;28;89505;-66
2024/01/27 04:58:22;;;;;;;7.60;5.43;;;22.40;67.40;;;;;;6178052;28;89139;-66
2024/01/27 05:01:24;;;;;;;5.68;5.03;;;22.30;67.20;;;;;;6167134;22;89102;-94
2024/01/27 05:04:27;;;;;;;7.30;5.45;;;22.40;67.20;;;;;;6142702;28;89117;-94
2024/01/27 05:07:32;;;;;;;5.63;4.68;;;22.40;67.20;;;;;;6143190;28;90726;-93
2024/01/27 05:10:35;;;;;;;7.05;5.30;;;22.40;67.10;;;;;;6142701;28;89520;-93
2024/01/27 05:13:40;;;;;;;5.72;4.97;;;22.50;67.10;;;;;;6139672;28;88696;-93
2024/01/27 05:16:45;;;;;;;6.57;4.97;;;22.50;67.10;;;;;;6135859;28;88010;-94
2024/01/27 05:23:04;;;;;;;5.88;4.65;;;22.50;67.00;;;;;;6145306;28;89743;-93
2024/01/27 05:26:06;;;;;;;7.07;4.93;;;22.50;67.00;;;;;;6141573;28;89348;-93
2024/01/27 05:29:35;;;;;;;6.05;4.93;;;22.60;67.00;;;;;;6140972;28;88975;-93
2024/01/27 05:42:32;;;;;;;5.65;4.80;;;22.60;66.70;;;;;;6152367;28;89297;-94
2024/01/27 05:45:40;;;;;;;6.78;4.82;;;22.60;66.70;;;;;;6143900;28;88528;-94
2024/01/27 06:01:49;;;;;;;5.28;4.35;;;22.60;66.70;;;;;;6152228;28;89199;-93
2024/01/27 06:11:27;;;;;;;5.95;4.28;;;22.60;66.90;;;;;;6149418;28;90306;-93
2024/01/27 06:21:56;;;;;;;5.63;4.47;;;22.50;66.90;;;;;;6149066;28;88819;-93
2024/01/27 06:24:58;;;;;;;4.75;4.25;;;22.50;66.90;;;;;;6147492;28;87990;-93
2024/01/27 06:28:01;;;;;;;6.43;4.43;;;22.50;67.10;;;;;;6146747;28;90232;-93
2024/01/27 06:31:05;;;;;;;6.43;4.53;;;22.50;67.00;;;;;;6146617;28;89547;-94
2024/01/27 06:34:08;;;;;;;6.32;4.40;;;22.50;66.90;;;;;;6147276;28;89025;-93
2024/01/27 06:37:12;;;;;;;5.43;4.50;;;22.50;66.90;;;;;;6147372;28;89336;-93
2024/01/27 06:40:15;;;;;;;5.95;4.20;;;22.50;66.90;;;;;;6147319;28;91105;-93
2024/01/27 06:43:18;;;;;;;5.53;4.05;;;22.50;66.80;;;;;;6146765;28;89000;-93
2024/01/27 06:46:21;;;;;;;6.25;4.20;;;22.60;66.90;;;;;;6146931;28;89122;-93
2024/01/27 06:49:23;;;;;;;4.65;3.90;;;22.50;66.80;;;;;;6147218;28;88455;-93
2024/01/27 06:52:26;;;;;;;5.15;4.18;;;22.60;66.80;;;;;;6145214;28;88318;-93
2024/01/27 06:55:29;;;;;;;5.40;4.20;;;22.60;66.80;;;;;;6148453;28;88995;-94
2024/01/27 07:01:48;;;;;;;5.10;4.00;;;22.60;66.80;;;;;;6153845;28;90306;-94
2024/01/27 07:04:51;;;;;;;4.80;3.95;;;22.50;66.70;;;;;;6146763;28;88340;-93
2024/01/27 07:07:55;;;;;;;5.60;4.18;;;22.60;66.70;;;;;;6146392;28;89121;-93
2024/01/27 07:10:57;;;;;;;6.18;4.15;;;22.60;66.70;;;;;;6144775;28;89465;-94
2024/01/27 07:13:59;;;;;;;5.47;3.80;;;22.60;66.60;;;;;;6146723;28;90038;-94
2024/01/27 07:17:01;;;;;;;5.15;3.65;;;22.60;66.60;;;;;;6143334;28;89490;-93
2024/01/27 07:20:07;;;;;;;4.63;3.47;;;22.60;66.60;;;;;;6140309;28;88581;-94
2024/01/27 07:26:56;;;;;;;4.20;3.42;;;22.60;66.40;;;;;;6151687;28;89392;-94
2024/01/27 07:29:58;;;;;;;4.53;3.50;;;22.70;66.40;;;;;;6146501;28;90472;-94
2024/01/27 07:33:01;;;;;;;6.63;3.97;;;22.70;66.40;;;;;;6145676;28;89411;-94
2024/01/27 07:36:04;;;;;;;4.72;3.90;;;22.70;66.40;;;;;;6145772;28;89102;-94
2024/01/27 07:39:06;;;;;;;5.68;3.90;;;22.70;66.40;;;;;;6143606;28;87987;-93
2024/01/27 07:42:12;;;;;;;3.85;3.38;;;22.70;66.40;;;;;;6146105;28;89019;-93
2024/01/27 08:09:38;;;;;;;5.15;3.53;;;22.80;66.20;;;;;;6150628;28;90825;-95
2024/01/27 08:29:10;;;;;;;4.53;3.40;;;23.00;66.10;;;;;;6144803;28;90545;-94
2024/01/27 08:45:48;;;;;;;4.70;3.53;;;23.10;65.90;;;;;;6152873;28;88926;-93
2024/01/27 08:48:50;;;;;;;4.07;3.20;;;23.00;65.90;;;;;;6146536;28;88537;-94
2024/01/27 08:51:54;;;;;;;5.38;3.50;;;23.00;65.80;;;;;;6146512;28;89819;-94
2024/01/27 08:54:57;;;;;;;4.15;3.25;;;23.10;65.80;;;;;;6145792;28;89372;-93
2024/01/27 08:57:59;;;;;;;4.60;3.35;;;23.10;65.80;;;;;;6146798;28;88472;-94
2024/01/27 09:23:08;;;;;;;4.60;3.40;;;23.20;65.50;;;;;;6146449;28;90044;-94
2024/01/27 09:26:18;;;;;;;3.38;2.83;;;23.30;65.50;;;;;;6145260;28;89007;-93
2024/01/27 09:29:25;;;;;;;3.40;3.10;;;23.30;65.50;;;;;;6143606;28;88980;-94
2024/01/27 09:32:28;;;;;;;4.28;3.10;;;23.30;65.50;;;;;;6145018;28;88887;-93
2024/01/27 09:35:33;;;;;;;3.80;3.22;;;23.30;65.50;;;;;;6144125;28;89283;-93
2024/01/27 09:38:36;;;;;;;4.22;3.05;;;23.30;65.50;;;;;;6145420;28;88344;-93
2024/01/27 09:41:38;;;;;;;4.68;3.17;;;23.30;65.40;;;;;;6143677;28;90181;-94
2024/01/27 09:44:43;;;;;;;4.32;3.00;;;23.30;65.40;;;;;;6143973;28;89470;-93
2024/01/27 09:51:11;;;;;;;3.47;2.78;;;23.40;65.40;;;;;;6153800;28;90100;-93
2024/01/27 09:54:14;;;;;;;3.90;3.15;;;23.40;65.40;;;;;;6148400;28;88272;-94
2024/01/27 09:57:20;;;;;;;4.40;3.13;;;23.40;65.40;;;;;;6148892;28;91028;-93
2024/01/27 10:00:23;;;;;;;3.92;2.88;;;23.40;65.40;;;;;;6148941;28;88272;-93
2024/01/27 10:03:27;;;;;;;4.30;2.95;;;23.40;65.30;;;;;;6148972;28;86452;-94
2024/01/27 10:06:33;;;;;;;4.45;3.00;;;23.40;65.20;;;;;;6148728;28;89227;-94
2024/01/27 10:09:41;;;;;;;3.65;2.92;;;23.40;65.20;;;;;;6148561;28;88382;-94
2024/01/27 10:12:44;;;;;;;4.47;3.05;;;23.40;65.10;;;;;;6147656;28;88880;-93
2024/01/27 10:15:46;;;;;;;3.70;2.95;;;23.40;65.00;;;;;;6144250;28;88374;-94
2024/01/27 10:29:37;;;;;;;4.57;3.00;;;23.50;65.00;;;;;;6157128;28;89855;-94
2024/01/27 10:32:40;;;;;;;4.18;3.08;;;23.50;65.00;;;;;;6148554;28;89082;-93
2024/01/27 10:35:44;;;;;;;4.20;3.00;;;23.50;65.00;;;;;;6148701;28;88332;-94
2024/01/27 10:42:05;;;;;;;3.80;2.88;;;23.60;65.00;;;;;;6147820;28;89985;-93
2024/01/27 10:48:31;;;;;;;4.85;3.00;;;23.50;65.00;;;;;;6147695;28;89481;-93
2024/01/27 10:51:36;;;;;;;4.05;2.97;;;23.50;64.90;;;;;;6148052;28;88266;-93
2024/01/27 10:58:01;;;;;;;5.25;3.05;;;23.60;64.90;;;;;;6150175;28;89408;-94
2024/01/27 11:15:24;;;;;;;4.65;3.25;;;23.60;64.80;;;;;;6142803;28;88990;-94
2024/01/27 11:18:27;;;;;;;6.38;3.58;;;23.60;64.70;;;;;;6143724;28;88142;-94
2024/01/27 11:21:29;;;;;;;5.90;3.55;;;23.60;64.70;;;;;;6141174;28;88998;-93
2024/01/27 11:51:15;;;;;;;6.40;3.50;;;23.70;64.50;;;;;;6149756;28;89431;-94
2024/01/27 11:54:21;;;;;;;4.40;3.25;;;23.70;64.50;;;;;;6149508;28;90315;-94
2024/01/27 11:57:23;;;;;;;5.13;3.17;;;23.70;64.50;;;;;;6152270;28;89396;-94
2024/01/27 12:27:39;;;;;;;5.00;3.17;;;23.70;64.30;;;;;;6146168;28;88683;-95
2024/01/27 12:38:35;;;;;;;5.82;3.33;;;23.70;64.30;;;;;;6154127;28;90141;-94
2024/01/27 13:02:52;;;;;;;5.63;2.72;;;23.80;64.20;;;;;;6146466;28;91855;-94
2024/01/27 13:22:53;;;;;;;5.20;3.90;;;23.80;64.20;;;;;;6157999;28;90498;-95
2024/01/27 13:25:57;;;;;;;5.78;3.90;;;23.80;64.20;;;;;;6148694;28;88435;-95
2024/01/27 13:38:52;;;;;;;5.95;4.55;;;23.80;64.20;;;;;;6153863;28;89342;-95
2024/01/27 13:41:55;;;;;;;5.72;4.40;;;23.80;64.20;;;;;;6142830;28;88284;-95
2024/01/27 13:44:58;;;;;;;6.25;4.95;;;23.80;64.20;;;;;;6142840;28;89383;-95
2024/01/27 13:48:00;;;;;;;5.85;4.80;;;23.80;64.20;;;;;;6138973;28;87028;-95
2024/01/27 13:51:02;;;;;;;5.78;4.88;;;23.80;64.20;;;;;;6142474;28;89409;-95
2024/01/27 13:54:04;;;;;;;5.78;4.97;;;23.80;64.10;;;;;;6138761;28;87861;-95
2024/01/27 13:57:08;;;;;;;7.60;5.50;;;23.80;64.20;;;;;;6143141;28;86513;-96
2024/01/27 14:00:11;;;;;;;6.07;4.78;;;23.80;64.10;;;;;;6139852;28;88391;-95
2024/01/27 14:03:13;;;;;;;7.10;5.90;;;23.80;64.10;;;;;;6144776;28;88987;-95
2024/01/27 14:06:18;;;;;;;6.32;5.20;;;23.80;64.20;;;;;;6141933;28;90084;-95
2024/01/27 14:09:21;;;;;;;8.13;5.80;;;23.80;64.10;;;;;;6142483;28;88026;-94
2024/01/27 14:12:24;;;;;;;6.20;5.43;;;23.80;64.20;;;;;;6142669;28;88417;-95
2024/01/27 14:15:26;;;;;;;6.60;5.25;;;23.90;64.20;;;;;;6142516;28;89047;-95
2024/01/27 14:18:31;;;;;;;7.03;5.20;;;23.80;64.10;;;;;;6141860;28;87979;-95
2024/01/27 14:21:33;;;;;;;6.13;5.40;;;23.80;64.10;;;;;;6142233;28;89183;-95
2024/01/27 14:24:36;;;;;;;6.72;5.50;;;23.80;64.10;;;;;;6138286;28;86971;-95
2024/01/27 14:27:43;;;;;;;6.32;5.45;;;23.80;64.20;;;;;;6142714;28;88227;-94
2024/01/27 14:30:45;;;;;;;7.72;5.95;;;23.80;64.20;;;;;;6137533;28;87122;-95
2024/01/27 14:33:47;;;;;;;8.80;6.00;;;23.80;64.20;;;;;;6138094;28;87992;-95
2024/01/27 14:36:51;;;;;;;6.95;5.88;;;23.80;64.20;;;;;;6141111;28;90261;-95
2024/01/27 14:39:53;;;;;;;6.95;5.55;;;23.80;64.20;;;;;;6141677;28;89606;-95
2024/01/27 14:42:57;;;;;;;6.85;5.43;;;23.80;64.20;;;;;;6141770;28;88918;-94
2024/01/27 14:45:59;;;;;;;6.57;5.88;;;23.80;64.20;;;;;;6142277;28;89702;-95
2024/01/27 14:49:01;;;;;;;6.30;5.70;;;23.80;64.20;;;;;;6141866;28;89928;-95
2024/01/27 14:52:03;;;;;;;7.38;6.07;;;23.80;64.10;;;;;;6142001;28;89553;-95
2024/01/27 14:55:08;;;;;;;7.18;6.03;;;23.80;64.10;;;;;;6141058;28;89112;-95
2024/01/27 14:58:11;;;;;;;7.68;5.90;;;23.80;64.10;;;;;;6141334;28;88837;-95
2024/01/27 15:01:15;;;;;;;7.22;6.10;;;23.80;64.10;;;;;;6140626;28;89026;-95
2024/01/27 15:04:18;;;;;;;6.28;5.60;;;23.80;64.20;;;;;;6141490;28;89178;-95
2024/01/27 15:07:21;;;;;;;7.03;5.95;;;23.80;64.00;;;;;;6140907;28;90095;-95
2024/01/27 15:10:23;;;;;;;7.95;6.40;;;23.80;64.10;;;;;;6141246;28;89074;-95
2024/01/27 15:13:28;;;;;;;6.82;6.10;;;23.90;64.20;;;;;;6141387;28;90025;-94
2024/01/27 15:16:32;;;;;;;6.47;5.72;;;23.80;64.10;;;;;;6137363;28;87973;-96
2024/01/27 15:19:34;;;;;;;7.22;6.00;;;23.80;64.10;;;;;;6141285;28;89570;-95
2024/01/27 15:22:37;;;;;;;6.63;5.88;;;23.80;64.00;;;;;;6141149;28;89155;-95
2024/01/27 15:25:39;;;;;;;6.47;5.75;;;23.80;64.10;;;;;;6140891;28;89346;-94
2024/01/27 15:28:43;;;;;;;6.55;5.50;;;23.90;64.10;;;;;;6137735;28;87687;-95
2024/01/27 15:31:46;;;;;;;7.10;5.95;;;23.80;64.00;;;;;;6140726;28;89760;-94
2024/01/27 15:34:49;;;;;;;6.38;5.47;;;23.90;64.10;;;;;;6140971;28;87426;-96
2024/01/27 15:37:51;;;;;;;6.53;5.65;;;23.80;64.00;;;;;;6139933;28;90449;-95
2024/01/27 15:40:53;;;;;;;6.22;5.63;;;23.80;64.00;;;;;;6141116;28;89345;-95
2024/01/27 15:43:57;;;;;;;6.20;5.57;;;23.80;64.00;;;;;;6139723;28;89069;-95
2024/01/27 15:47:02;;;;;;;6.70;5.97;;;23.90;64.00;;;;;;6141156;28;89511;-96
2024/01/27 15:50:06;;;;;;;6.03;5.30;;;23.80;63.90;;;;;;6140956;28;89537;-95
2024/01/27 15:53:09;;;;;;;6.38;5.78;;;23.90;64.00;;;;;;6137316;28;88387;-96
2024/01/27 15:56:11;;;;;;;7.03;5.72;;;23.90;64.00;;;;;;6140627;28;89262;-95
2024/01/27 15:59:18;;;;;;;6.07;5.38;;;23.90;64.00;;;;;;6140692;28;88340;-94
2024/01/27 16:02:20;;;;;;;6.28;5.40;;;23.90;63.80;;;;;;6140255;28;87943;-95
2024/01/27 16:05:22;;;;;;;7.07;5.90;;;23.90;63.80;;;;;;6140789;28;89193;-95
2024/01/27 16:08:25;;;;;;;6.75;5.60;;;23.90;63.80;;;;;;6139952;28;90224;-96
2024/01/27 16:11:31;;;;;;;6.40;5.32;;;23.90;63.80;;;;;;6136340;28;88107;-96
2024/01/27 16:14:35;;;;;;;6.55;5.70;;;23.90;63.80;;;;;;6140815;28;88166;-96
2024/01/27 16:17:37;;;;;;;6.32;5.70;;;23.80;63.70;;;;;;6140793;28;87154;-96
2024/01/27 16:20:39;;;;;;;6.00;5.40;;;23.90;63.80;;;;;;6140790;28;87967;-96
2024/01/27 16:23:45;;;;;;;6.10;5.40;;;23.90;63.80;;;;;;6136805;28;87187;-96
2024/01/27 16:26:47;;;;;;;5.78;5.18;;;23.90;63.80;;;;;;6140181;28;88432;-96
2024/01/27 16:29:51;;;;;;;5.70;5.20;;;23.90;63.80;;;;;;6140748;28;88928;-96
2024/01/27 16:32:54;;;;;;;5.80;5.20;;;23.90;63.80;;;;;;6139431;28;89399;-95
2024/01/27 16:35:56;;;;;;;6.47;5.25;;;23.90;63.80;;;;;;6138720;28;89132;-96
2024/01/27 16:38:58;;;;;;;5.85;5.22;;;23.90;63.80;;;;;;6138178;28;88084;-96
2024/01/27 16:42:00;;;;;;;5.63;4.90;;;23.90;63.80;;;;;;6139717;28;88236;-95
2024/01/27 16:45:06;;;;;;;6.45;5.15;;;23.90;63.80;;;;;;6140554;28;89712;-95
2024/01/27 16:48:08;;;;;;;5.65;5.07;;;23.90;63.80;;;;;;6140148;28;88127;-96
2024/01/27 16:51:11;;;;;;;6.03;5.07;;;23.90;63.70;;;;;;6140411;28;88263;-96
2024/01/27 16:54:13;;;;;;;5.03;4.53;;;23.90;64.50;;;;;;6136321;28;87154;-96
2024/01/27 16:57:15;;;;;;;5.80;5.20;;;23.90;63.60;;;;;;6139293;28;89494;-95
2024/01/27 17:00:20;;;;;;;5.60;5.00;;;23.90;63.60;;;;;;6140576;28;91162;-95
2024/01/27 17:03:22;;;;;;;6.20;5.35;;;23.90;63.70;;;;;;6137479;28;88296;-96
2024/01/27 17:06:24;;;;;;;5.60;5.10;;;23.90;63.60;;;;;;6139951;28;88532;-95
2024/01/27 17:09:36;;;;;;;5.60;5.10;;;23.90;63.70;;;;;;6140496;28;90321;-96
2024/01/27 17:12:38;;;;;;;5.80;4.75;;;23.90;63.80;;;;;;6139811;28;91403;-96
2024/01/27 17:15:45;;;;;;;6.20;5.45;;;23.90;63.80;;;;;;6139552;28;91459;-96
2024/01/27 17:18:47;;;;;;;5.63;4.93;;;24.00;64.00;;;;;;6136111;28;87126;-95
2024/01/27 17:22:10;;;;;;;5.40;4.90;;;24.00;64.00;;;;;;6149662;28;88033;-96
2024/01/27 17:25:12;;;;;;;6.43;5.28;;;23.90;64.00;;;;;;6149616;28;87411;-96
2024/01/27 17:28:15;;;;;;;5.47;4.90;;;23.90;64.20;;;;;;6143663;28;88093;-96
2024/01/27 17:34:28;;;;;;;5.82;5.10;;;24.00;64.20;;;;;;3193653;26;90762;-63
2024/01/27 17:37:33;;;;;;;6.28;5.00;;;24.00;64.20;;;;;;6153679;28;89114;-66
2024/01/27 17:40:35;;;;;;;5.30;4.78;;;23.90;64.20;;;;;;6160603;28;90017;-66
2024/01/27 17:43:37;;;;;;;5.68;4.80;;;24.00;64.20;;;;;;6161678;28;88099;-66
2024/01/27 17:46:39;;;;;;;6.22;4.82;;;24.10;64.30;;;;;;6157175;28;89414;-64
2024/01/27 17:49:43;;;;;;;6.63;5.43;;;24.10;64.30;;;;;;6152094;28;88815;-66
2024/01/27 17:52:45;;;;;;;5.30;4.65;;;24.10;64.40;;;;;;6150062;28;89034;-66
2024/01/27 17:55:47;;;;;;;5.13;4.57;;;24.10;64.40;;;;;;6148697;28;89033;-66
2024/01/27 17:58:49;;;;;;;6.18;5.07;;;24.00;64.30;;;;;;6155699;28;89089;-66
2024/01/27 18:01:51;;;;;;;8.48;5.50;;;24.10;64.40;;;;;;6151682;28;88332;-66
2024/01/27 18:04:55;;;;;;;5.63;4.82;;;24.10;64.40;;;;;;6161689;28;89102;-65
2024/01/27 18:07:57;;;;;;;5.30;4.78;;;24.10;64.40;;;;;;6148355;28;89489;-66
2024/01/27 18:10:59;;;;;;;5.45;4.47;;;24.00;64.30;;;;;;6151296;28;90002;-66
2024/01/27 18:14:01;;;;;;;7.00;4.82;;;24.10;64.50;;;;;;6156578;28;89104;-65
2024/01/27 18:17:03;;;;;;;7.88;5.10;;;24.10;64.60;;;;;;6158514;28;89198;-66
2024/01/27 18:20:09;;;;;;;8.40;4.97;;;24.10;64.70;;;;;;6157935;28;89380;-66
2024/01/27 18:23:11;;;;;;;6.95;4.78;;;24.10;65.00;;;;;;6148498;28;89257;-66
2024/01/27 18:26:13;;;;;;;5.65;4.60;;;24.10;65.20;;;;;;6152403;28;89318;-65
2024/01/27 18:29:15;;;;;;;7.28;4.93;;;24.10;65.40;;;;;;6171754;28;87941;-65
2024/01/27 18:32:19;;;;;;;7.20;4.70;;;24.10;65.40;;;;;;6147969;28;88266;-65
2024/01/27 18:35:22;;;;;;;5.35;4.50;;;24.10;65.40;;;;;;6148531;28;88323;-66
2024/01/27 18:38:24;;;;;;;6.82;4.80;;;24.10;65.50;;;;;;6152672;28;89629;-66
2024/01/27 18:41:26;;;;;;;6.78;4.45;;;24.20;65.60;;;;;;6154951;28;90101;-65
2024/01/27 18:44:28;;;;;;;18.25;7.82;;;24.20;65.50;;;;;;6119000;28;89112;-65
2024/01/27 18:47:30;;;;;;;17.45;7.85;;;24.20;65.60;;;;;;6107240;28;89422;-66
2024/01/27 18:50:36;;;;;;;17.23;7.53;;;24.20;65.50;;;;;;6100275;28;89697;-66
2024/01/27 18:53:38;;;;;;;14.93;7.28;;;24.20;65.50;;;;;;6101474;28;89726;-66
2024/01/27 18:56:40;;;;;;;6.72;5.07;;;24.20;65.40;;;;;;6114805;28;89314;-65
2024/01/27 18:59:42;;;;;;;8.27;5.10;;;24.10;65.20;;;;;;6145819;28;89587;-66
2024/01/27 19:02:44;;;;;;;7.88;4.47;;;24.20;65.30;;;;;;6150464;28;88448;-66
2024/01/27 19:05:48;;;;;;;4.90;4.40;;;24.20;65.30;;;;;;6157165;28;89190;-66
2024/01/27 19:08:50;;;;;;;5.50;4.28;;;24.20;65.20;;;;;;6158057;28;89164;-66
2024/01/27 19:11:53;;;;;;;6.07;4.57;;;24.20;65.10;;;;;;6147203;28;90062;-66
2024/01/27 19:14:55;;;;;;;6.25;4.72;;;24.20;65.00;;;;;;6148047;28;89092;-65
2024/01/27 19:17:57;;;;;;;5.82;4.30;;;24.20;65.10;;;;;;6156628;28;89171;-65
2024/01/27 19:21:00;;;;;;;6.40;4.55;;;24.20;65.20;;;;;;6154793;28;88678;-66
2024/01/27 19:24:02;;;;;;;6.03;4.50;;;24.20;65.00;;;;;;6139266;28;89107;-66
2024/01/27 19:27:04;;;;;;;7.25;4.65;;;24.30;65.10;;;;;;6149408;28;89183;-66
2024/01/27 19:30:08;;;;;;;5.22;4.32;;;24.30;65.00;;;;;;6146601;28;89106;-65
2024/01/27 19:33:10;;;;;;;5.20;4.43;;;24.20;65.00;;;;;;6149221;28;88025;-66
2024/01/27 19:36:14;;;;;;;5.50;4.30;;;24.30;66.00;;;;;;6153240;28;89409;-65
2024/01/27 19:39:16;;;;;;;6.55;4.57;;;24.20;64.90;;;;;;6161405;28;88409;-65
2024/01/27 19:42:18;;;;;;;7.20;4.70;;;24.20;64.90;;;;;;6157802;28;91016;-66
2024/01/27 19:45:21;;;;;;;5.97;4.40;;;24.20;64.80;;;;;;6148718;28;89084;-65
2024/01/27 19:48:23;;;;;;;4.85;4.03;;;24.20;64.80;;;;;;6151972;28;88957;-66
2024/01/27 19:51:26;;;;;;;4.88;3.92;;;24.20;64.80;;;;;;6149455;28;89172;-65
2024/01/27 19:54:28;;;;;;;5.70;4.45;;;24.20;64.70;;;;;;6151446;28;89215;-65
2024/01/27 19:57:30;;;;;;;5.10;3.92;;;24.20;64.70;;;;;;6154506;28;89038;-65
2024/01/27 20:00:33;;;;;;;5.60;4.20;;;24.20;64.70;;;;;;6144740;28;89211;-65
2024/01/27 20:03:36;;;;;;;5.65;4.38;;;24.20;64.70;;;;;;6156887;28;87628;-65
2024/01/27 20:06:39;;;;;;;5.65;4.15;;;24.30;63.00;;;;;;6146017;28;88103;-65
2024/01/27 20:09:41;;;;;;;4.50;3.72;;;24.20;63.30;;;;;;6153778;28;88129;-65
2024/01/27 20:12:43;;;;;;;5.90;3.90;;;24.20;63.50;;;;;;6142044;28;89989;-65
2024/01/27 20:15:46;;;;;;;5.70;3.90;;;24.20;63.70;;;;;;6143423;28;88737;-66
2024/01/27 20:18:49;;;;;;;4.95;3.90;;;24.30;63.80;;;;;;6151471;28;89074;-65
2024/01/27 20:21:53;;;;;;;5.97;3.90;;;24.30;63.90;;;;;;6149004;28;88132;-66
2024/01/27 20:24:55;;;;;;;7.63;4.15;;;24.20;64.00;;;;;;6154843;28;89113;-65